AXM6452 WBGG-WBGR
Flight info
| Callsign | AXM6452 |
|---|---|
| Flight time | 0h 44m |
| Altitude | 31000 |
| Route | WBGG/07 PILAX G580 SARVO DCT BIPAS BIPAS1E WBGR/02 |
| Aircraft | A320/M-SDE3FGHIRWY/LB1 |
Departure
| Time | 2026-04-30 01:14 |
|---|---|
| Airport | Kuching International Airport (WBGG) |
Arrival
| Time | 2026-04-30 01:58 |
|---|---|
| Airport | Miri Airport (WBGR) |
| Time | Latitude | Longitude | Altitude | Speed | Heading |
|---|---|---|---|---|---|
| 2026-04-30 00:50 | 1.48693 | 110.34315 | 78 ft | 0 kts | 338° |
| 2026-04-30 01:05 | 1.48689 | 110.34316 | 70 ft | 3 kts | 338° |
| 2026-04-30 01:05 | 1.48664 | 110.34326 | 67 ft | 4 kts | 339° |
| 2026-04-30 01:05 | 1.48639 | 110.34337 | 67 ft | 4 kts | 322° |
| 2026-04-30 01:06 | 1.48626 | 110.34355 | 74 ft | 4 kts | 267° |
| 2026-04-30 01:06 | 1.48628 | 110.34368 | 69 ft | 0 kts | 249° |
| 2026-04-30 01:09 | 1.48627 | 110.34366 | 69 ft | 3 kts | 249° |
| 2026-04-30 01:09 | 1.48612 | 110.34328 | 69 ft | 6 kts | 249° |
| 2026-04-30 01:09 | 1.48595 | 110.34283 | 71 ft | 8 kts | 249° |
| 2026-04-30 01:10 | 1.48570 | 110.34243 | 70 ft | 6 kts | 213° |
| 2026-04-30 01:10 | 1.48526 | 110.34245 | 72 ft | 8 kts | 163° |
| 2026-04-30 01:10 | 1.48476 | 110.34266 | 73 ft | 7 kts | 158° |
| 2026-04-30 01:10 | 1.48442 | 110.34280 | 82 ft | 0 kts | 158° |
| 2026-04-30 01:11 | 1.48409 | 110.34293 | 85 ft | 9 kts | 158° |
| 2026-04-30 01:12 | 1.48377 | 110.34306 | 91 ft | 2 kts | 155° |
| 2026-04-30 01:12 | 1.48358 | 110.34332 | 92 ft | 8 kts | 104° |
| 2026-04-30 01:12 | 1.48369 | 110.34376 | 89 ft | 5 kts | 68° |
| 2026-04-30 01:12 | 1.48371 | 110.34381 | 89 ft | 0 kts | 68° |
| 2026-04-30 01:13 | 1.48454 | 110.34585 | 88 ft | 71 kts | 68° |
| 2026-04-30 01:13 | 1.48720 | 110.35259 | 69 ft | 134 kts | 68° |
| 2026-04-30 01:13 | 1.49122 | 110.36276 | 138 ft | 175 kts | 69° |
| 2026-04-30 01:13 | 1.49574 | 110.37474 | 563 ft | 193 kts | 69° |
| 2026-04-30 01:14 | 1.50079 | 110.38777 | 1098 ft | 208 kts | 68° |
| 2026-04-30 01:14 | 1.50723 | 110.40070 | 1856 ft | 207 kts | 56° |
| 2026-04-30 01:14 | 1.51617 | 110.41270 | 2211 ft | 223 kts | 50° |
| 2026-04-30 01:14 | 1.52666 | 110.42520 | 2466 ft | 244 kts | 49° |
| 2026-04-30 01:15 | 1.53774 | 110.43811 | 3268 ft | 245 kts | 49° |
| 2026-04-30 01:15 | 1.54896 | 110.45131 | 3879 ft | 259 kts | 49° |
| 2026-04-30 01:15 | 1.56066 | 110.46523 | 4538 ft | 269 kts | 50° |
| 2026-04-30 01:15 | 1.57271 | 110.47973 | 5371 ft | 273 kts | 50° |
| 2026-04-30 01:16 | 1.58482 | 110.49443 | 6225 ft | 276 kts | 51° |
| 2026-04-30 01:16 | 1.59705 | 110.50939 | 7044 ft | 279 kts | 51° |
| 2026-04-30 01:16 | 1.60940 | 110.52456 | 7855 ft | 283 kts | 51° |
| 2026-04-30 01:16 | 1.62184 | 110.53989 | 8622 ft | 286 kts | 51° |
| 2026-04-30 01:17 | 1.63449 | 110.55547 | 9361 ft | 290 kts | 51° |
| 2026-04-30 01:17 | 1.64724 | 110.57114 | 10110 ft | 293 kts | 51° |
| 2026-04-30 01:17 | 1.66063 | 110.58760 | 10383 ft | 315 kts | 51° |
| 2026-04-30 01:17 | 1.67493 | 110.60518 | 10547 ft | 338 kts | 51° |
| 2026-04-30 01:18 | 1.69006 | 110.62375 | 10978 ft | 348 kts | 51° |
| 2026-04-30 01:18 | 1.70544 | 110.64265 | 11635 ft | 353 kts | 51° |
| 2026-04-30 01:18 | 1.72104 | 110.66181 | 12330 ft | 355 kts | 52° |
| 2026-04-30 01:18 | 1.73666 | 110.68098 | 12993 ft | 358 kts | 52° |
| 2026-04-30 01:19 | 1.75246 | 110.70038 | 13642 ft | 361 kts | 52° |
| 2026-04-30 01:19 | 1.76836 | 110.71990 | 14232 ft | 365 kts | 52° |
| 2026-04-30 01:19 | 1.78447 | 110.73969 | 14825 ft | 368 kts | 52° |
| 2026-04-30 01:19 | 1.80052 | 110.75940 | 15394 ft | 371 kts | 52° |
| 2026-04-30 01:20 | 1.81706 | 110.77972 | 15980 ft | 374 kts | 52° |
| 2026-04-30 01:20 | 1.83357 | 110.80000 | 16523 ft | 378 kts | 52° |
| 2026-04-30 01:20 | 1.85000 | 110.82017 | 17065 ft | 380 kts | 52° |
| 2026-04-30 01:20 | 1.86678 | 110.84079 | 17594 ft | 384 kts | 52° |
| 2026-04-30 01:21 | 1.88387 | 110.86179 | 18131 ft | 386 kts | 52° |
| 2026-04-30 01:21 | 1.90068 | 110.88246 | 18639 ft | 389 kts | 52° |
| 2026-04-30 01:21 | 1.91787 | 110.90358 | 19132 ft | 393 kts | 52° |
| 2026-04-30 01:21 | 1.93519 | 110.92486 | 19593 ft | 396 kts | 52° |
| 2026-04-30 01:22 | 1.95268 | 110.94636 | 20074 ft | 400 kts | 52° |
| 2026-04-30 01:22 | 1.97025 | 110.96795 | 20534 ft | 403 kts | 52° |
| 2026-04-30 01:22 | 1.98805 | 110.98986 | 20967 ft | 407 kts | 52° |
| 2026-04-30 01:22 | 2.00597 | 111.01190 | 21390 ft | 410 kts | 52° |
| 2026-04-30 01:23 | 2.02399 | 111.03407 | 21798 ft | 413 kts | 52° |
| 2026-04-30 01:23 | 2.04221 | 111.05649 | 22180 ft | 416 kts | 52° |
| 2026-04-30 01:23 | 2.06057 | 111.07907 | 22561 ft | 419 kts | 52° |
| 2026-04-30 01:23 | 2.07900 | 111.10173 | 22930 ft | 422 kts | 52° |
| 2026-04-30 01:24 | 2.09760 | 111.12462 | 23291 ft | 425 kts | 52° |
| 2026-04-30 01:24 | 2.11633 | 111.14764 | 23628 ft | 428 kts | 52° |
| 2026-04-30 01:24 | 2.13518 | 111.17080 | 23954 ft | 431 kts | 52° |
| 2026-04-30 01:24 | 2.15410 | 111.19404 | 24277 ft | 433 kts | 52° |
| 2026-04-30 01:25 | 2.17320 | 111.21748 | 24605 ft | 435 kts | 52° |
| 2026-04-30 01:25 | 2.19230 | 111.24096 | 24919 ft | 437 kts | 52° |
| 2026-04-30 01:25 | 2.21155 | 111.26465 | 25222 ft | 439 kts | 52° |
| 2026-04-30 01:25 | 2.23088 | 111.28846 | 25524 ft | 441 kts | 52° |
| 2026-04-30 01:26 | 2.25022 | 111.31228 | 25817 ft | 443 kts | 52° |
| 2026-04-30 01:26 | 2.26971 | 111.33627 | 26113 ft | 445 kts | 52° |
| 2026-04-30 01:26 | 2.28922 | 111.36025 | 26396 ft | 446 kts | 52° |
| 2026-04-30 01:26 | 2.30885 | 111.38441 | 26664 ft | 448 kts | 52° |
| 2026-04-30 01:27 | 2.32882 | 111.40841 | 26935 ft | 450 kts | 51° |
| 2026-04-30 01:27 | 2.34952 | 111.43202 | 27201 ft | 452 kts | 49° |
| 2026-04-30 01:27 | 2.37064 | 111.45527 | 27455 ft | 453 kts | 49° |
| 2026-04-30 01:27 | 2.39208 | 111.47852 | 27702 ft | 455 kts | 49° |
| 2026-04-30 01:28 | 2.41329 | 111.50154 | 27935 ft | 456 kts | 49° |
| 2026-04-30 01:28 | 2.43496 | 111.52530 | 28170 ft | 458 kts | 49° |
| 2026-04-30 01:28 | 2.45605 | 111.54870 | 28391 ft | 459 kts | 49° |
| 2026-04-30 01:28 | 2.47744 | 111.57256 | 28610 ft | 461 kts | 49° |
| 2026-04-30 01:29 | 2.49880 | 111.59643 | 28832 ft | 462 kts | 50° |
| 2026-04-30 01:29 | 2.52028 | 111.62043 | 29041 ft | 463 kts | 50° |
| 2026-04-30 01:29 | 2.54183 | 111.64450 | 29247 ft | 464 kts | 49° |
| 2026-04-30 01:29 | 2.56344 | 111.66863 | 29442 ft | 466 kts | 49° |
| 2026-04-30 01:30 | 2.58507 | 111.69275 | 29630 ft | 467 kts | 49° |
| 2026-04-30 01:30 | 2.60679 | 111.71696 | 29811 ft | 467 kts | 49° |
| 2026-04-30 01:30 | 2.62849 | 111.74121 | 30064 ft | 467 kts | 49° |
| 2026-04-30 01:30 | 2.65016 | 111.76541 | 30316 ft | 466 kts | 49° |
| 2026-04-30 01:31 | 2.67174 | 111.78950 | 30566 ft | 465 kts | 49° |
| 2026-04-30 01:31 | 2.69337 | 111.81362 | 30808 ft | 465 kts | 49° |
| 2026-04-30 01:31 | 2.71495 | 111.83768 | 30910 ft | 465 kts | 49° |
| 2026-04-30 01:31 | 2.73657 | 111.86173 | 30924 ft | 464 kts | 49° |
| 2026-04-30 01:32 | 2.77969 | 111.90978 | 30926 ft | 464 kts | 49° |
| 2026-04-30 01:32 | 2.82278 | 111.95791 | 30921 ft | 464 kts | 49° |
| 2026-04-30 01:33 | 2.86586 | 112.00596 | 30927 ft | 464 kts | 49° |
| 2026-04-30 01:33 | 2.90649 | 112.05582 | 30925 ft | 461 kts | 57° |
| 2026-04-30 01:34 | 2.94280 | 112.10883 | 30918 ft | 461 kts | 57° |
| 2026-04-30 01:34 | 2.97911 | 112.16163 | 30915 ft | 461 kts | 56° |
| 2026-04-30 01:35 | 3.01540 | 112.21445 | 30917 ft | 461 kts | 57° |
| 2026-04-30 01:35 | 3.05148 | 112.26703 | 30915 ft | 461 kts | 57° |
| 2026-04-30 01:36 | 3.08775 | 112.31990 | 30915 ft | 461 kts | 57° |
| 2026-04-30 01:36 | 3.12400 | 112.37277 | 30919 ft | 461 kts | 57° |
| 2026-04-30 01:37 | 3.16027 | 112.42562 | 30921 ft | 461 kts | 57° |
| 2026-04-30 01:37 | 3.19662 | 112.47864 | 30920 ft | 461 kts | 57° |
| 2026-04-30 01:38 | 3.23291 | 112.53150 | 30922 ft | 461 kts | 57° |
| 2026-04-30 01:38 | 3.26919 | 112.58438 | 30927 ft | 461 kts | 57° |
| 2026-04-30 01:39 | 3.30545 | 112.63734 | 30927 ft | 461 kts | 57° |
| 2026-04-30 01:39 | 3.34173 | 112.69020 | 30921 ft | 461 kts | 56° |
| 2026-04-30 01:40 | 3.37780 | 112.74277 | 30921 ft | 461 kts | 57° |
| 2026-04-30 01:40 | 3.41395 | 112.79565 | 30924 ft | 461 kts | 57° |
| 2026-04-30 01:41 | 3.45046 | 112.84867 | 30060 ft | 466 kts | 56° |
| 2026-04-30 01:41 | 3.46988 | 112.87537 | 28799 ft | 471 kts | 54° |
| 2026-04-30 01:41 | 3.48978 | 112.90158 | 27540 ft | 474 kts | 53° |
| 2026-04-30 01:42 | 3.50998 | 112.92769 | 26619 ft | 471 kts | 53° |
| 2026-04-30 01:42 | 3.52989 | 112.95328 | 26031 ft | 461 kts | 53° |
| 2026-04-30 01:42 | 3.54931 | 112.97840 | 25325 ft | 454 kts | 53° |
| 2026-04-30 01:42 | 3.56815 | 113.00304 | 24615 ft | 449 kts | 54° |
| 2026-04-30 01:43 | 3.58711 | 113.02809 | 23884 ft | 444 kts | 54° |
| 2026-04-30 01:43 | 3.60538 | 113.05236 | 23185 ft | 439 kts | 54° |
| 2026-04-30 01:43 | 3.62365 | 113.07670 | 22502 ft | 434 kts | 54° |
| 2026-04-30 01:43 | 3.64167 | 113.10069 | 21833 ft | 430 kts | 54° |
| 2026-04-30 01:44 | 3.65958 | 113.12449 | 21199 ft | 426 kts | 54° |
| 2026-04-30 01:44 | 3.67729 | 113.14800 | 20573 ft | 421 kts | 54° |
| 2026-04-30 01:44 | 3.69487 | 113.17133 | 19935 ft | 417 kts | 54° |
| 2026-04-30 01:44 | 3.71255 | 113.19471 | 19305 ft | 414 kts | 54° |
| 2026-04-30 01:45 | 3.72963 | 113.21729 | 18727 ft | 410 kts | 54° |
| 2026-04-30 01:45 | 3.74676 | 113.23992 | 18143 ft | 406 kts | 54° |
| 2026-04-30 01:45 | 3.76366 | 113.26231 | 17565 ft | 403 kts | 54° |
| 2026-04-30 01:45 | 3.78058 | 113.28477 | 16832 ft | 404 kts | 54° |
| 2026-04-30 01:46 | 3.79748 | 113.30720 | 16275 ft | 400 kts | 54° |
| 2026-04-30 01:46 | 3.81416 | 113.32934 | 15666 ft | 398 kts | 54° |
| 2026-04-30 01:46 | 3.83079 | 113.35137 | 15066 ft | 395 kts | 54° |
| 2026-04-30 01:46 | 3.84726 | 113.37317 | 14519 ft | 390 kts | 53° |
| 2026-04-30 01:47 | 3.86359 | 113.39476 | 13915 ft | 386 kts | 53° |
| 2026-04-30 01:47 | 3.87939 | 113.41567 | 13362 ft | 368 kts | 53° |
| 2026-04-30 01:47 | 3.89452 | 113.43570 | 12833 ft | 355 kts | 54° |
| 2026-04-30 01:47 | 3.90445 | 113.44895 | 12471 ft | 351 kts | 55° |
| 2026-04-30 01:48 | 3.91648 | 113.46972 | 11938 ft | 348 kts | 66° |
| 2026-04-30 01:48 | 3.92552 | 113.49211 | 11400 ft | 345 kts | 69° |
| 2026-04-30 01:48 | 3.93442 | 113.51441 | 10865 ft | 343 kts | 68° |
| 2026-04-30 01:48 | 3.94330 | 113.53642 | 10541 ft | 335 kts | 68° |
| 2026-04-30 01:49 | 3.95188 | 113.55760 | 10410 ft | 321 kts | 68° |
| 2026-04-30 01:49 | 3.96012 | 113.57786 | 10277 ft | 309 kts | 68° |
| 2026-04-30 01:49 | 3.96808 | 113.59746 | 10106 ft | 299 kts | 68° |
| 2026-04-30 01:49 | 3.97580 | 113.61656 | 9901 ft | 292 kts | 68° |
| 2026-04-30 01:50 | 3.98341 | 113.63539 | 9775 ft | 291 kts | 68° |
| 2026-04-30 01:50 | 3.99097 | 113.65416 | 9583 ft | 292 kts | 68° |
| 2026-04-30 01:50 | 3.99862 | 113.67317 | 9091 ft | 294 kts | 68° |
| 2026-04-30 01:50 | 4.00627 | 113.69219 | 8568 ft | 296 kts | 68° |
| 2026-04-30 01:51 | 4.01388 | 113.71113 | 8249 ft | 291 kts | 68° |
| 2026-04-30 01:51 | 4.02134 | 113.72966 | 7825 ft | 290 kts | 68° |
| 2026-04-30 01:51 | 4.02888 | 113.74832 | 7408 ft | 288 kts | 68° |
| 2026-04-30 01:51 | 4.03638 | 113.76684 | 7002 ft | 286 kts | 68° |
| 2026-04-30 01:52 | 4.04382 | 113.78533 | 6603 ft | 286 kts | 68° |
| 2026-04-30 01:52 | 4.05126 | 113.80379 | 6282 ft | 285 kts | 68° |
| 2026-04-30 01:52 | 4.05858 | 113.82205 | 5950 ft | 281 kts | 68° |
| 2026-04-30 01:52 | 4.06592 | 113.84031 | 5210 ft | 284 kts | 68° |
| 2026-04-30 01:53 | 4.07342 | 113.85863 | 4518 ft | 284 kts | 64° |
| 2026-04-30 01:53 | 4.08471 | 113.87414 | 4255 ft | 269 kts | 41° |
| 2026-04-30 01:53 | 4.09987 | 113.88360 | 4108 ft | 248 kts | 25° |
| 2026-04-30 01:53 | 4.11488 | 113.89055 | 4001 ft | 229 kts | 25° |
| 2026-04-30 01:54 | 4.12883 | 113.89703 | 3897 ft | 212 kts | 25° |
| 2026-04-30 01:54 | 4.14194 | 113.90313 | 3781 ft | 207 kts | 25° |
| 2026-04-30 01:54 | 4.15498 | 113.90923 | 3457 ft | 207 kts | 25° |
| 2026-04-30 01:54 | 4.16808 | 113.91538 | 3149 ft | 208 kts | 25° |
| 2026-04-30 01:55 | 4.18117 | 113.92148 | 2871 ft | 207 kts | 25° |
| 2026-04-30 01:55 | 4.19415 | 113.92750 | 2598 ft | 206 kts | 25° |
| 2026-04-30 01:55 | 4.20725 | 113.93359 | 2321 ft | 206 kts | 25° |
| 2026-04-30 01:55 | 4.22004 | 113.93952 | 2073 ft | 196 kts | 25° |
| 2026-04-30 01:56 | 4.23200 | 113.94507 | 1798 ft | 181 kts | 25° |
| 2026-04-30 01:56 | 4.24279 | 113.95008 | 1563 ft | 162 kts | 25° |
| 2026-04-30 01:56 | 4.25261 | 113.95464 | 1355 ft | 151 kts | 26° |
| 2026-04-30 01:56 | 4.26196 | 113.95898 | 1158 ft | 146 kts | 26° |
| 2026-04-30 01:57 | 4.27109 | 113.96322 | 967 ft | 144 kts | 26° |
| 2026-04-30 01:57 | 4.28017 | 113.96740 | 779 ft | 143 kts | 26° |
| 2026-04-30 01:57 | 4.28909 | 113.97172 | 593 ft | 143 kts | 26° |
| 2026-04-30 01:57 | 4.29811 | 113.97588 | 389 ft | 142 kts | 25° |
| 2026-04-30 01:58 | 4.30707 | 113.98001 | 209 ft | 142 kts | 25° |
| 2026-04-30 01:58 | 4.31601 | 113.98407 | 74 ft | 131 kts | 26° |
| 2026-04-30 01:58 | 4.32274 | 113.98724 | 61 ft | 83 kts | 25° |
| 2026-04-30 01:58 | 4.32650 | 113.98899 | 68 ft | 32 kts | 25° |
| 2026-04-30 01:59 | 4.32976 | 113.99050 | 64 ft | 26 kts | 25° |
| 2026-04-30 01:59 | 4.33145 | 113.99129 | 67 ft | 28 kts | 25° |
| 2026-04-30 01:59 | 4.33302 | 113.99181 | 56 ft | 20 kts | 354° |
| 2026-04-30 02:00 | 4.33365 | 113.99219 | 62 ft | 12 kts | 143° |
| 2026-04-30 02:00 | 4.33287 | 113.99193 | 59 ft | 12 kts | 206° |
| 2026-04-30 02:00 | 4.33177 | 113.99142 | 63 ft | 20 kts | 205° |
| 2026-04-30 02:00 | 4.33049 | 113.99082 | 65 ft | 21 kts | 205° |
| 2026-04-30 02:01 | 4.32910 | 113.99017 | 65 ft | 23 kts | 205° |
| 2026-04-30 02:01 | 4.32805 | 113.98956 | 67 ft | 16 kts | 233° |
| 2026-04-30 02:01 | 4.32820 | 113.98850 | 68 ft | 17 kts | 292° |
| 2026-04-30 02:01 | 4.32774 | 113.98759 | 62 ft | 18 kts | 203° |
| 2026-04-30 02:02 | 4.32654 | 113.98704 | 62 ft | 20 kts | 205° |
| 2026-04-30 02:02 | 4.32524 | 113.98642 | 65 ft | 20 kts | 205° |
| 2026-04-30 02:02 | 4.32461 | 113.98585 | 62 ft | 11 kts | 265° |
| 2026-04-30 02:02 | 4.32479 | 113.98521 | 62 ft | 5 kts | 284° |
| 2026-04-30 02:03 | 4.32489 | 113.98493 | 60 ft | 4 kts | 292° |
| 2026-04-30 02:03 | 4.32499 | 113.98471 | 62 ft | 3 kts | 296° |
| 2026-04-30 02:03 | 4.32508 | 113.98454 | 59 ft | 2 kts | 295° |
| 2026-04-30 02:03 | 4.32513 | 113.98442 | 62 ft | 2 kts | 295° |
| 2026-04-30 02:04 | 4.32514 | 113.98440 | 62 ft | 0 kts | 295° |